sensor_id;sensor_type;location;lat;lon;timestamp;temperature;humidity
12769;DHT22;6448;48.916;8.990;2022-11-15T00:01:19;15.20;57.90
12769;DHT22;6448;48.916;8.990;2022-11-15T00:02:39;15.20;58.00
12769;DHT22;6448;48.916;8.990;2022-11-15T00:03:58;15.20;58.00
12769;DHT22;6448;48.916;8.990;2022-11-15T00:05:19;15.20;58.00
12769;DHT22;6448;48.916;8.990;2022-11-15T00:06:39;15.20;58.00
12769;DHT22;6448;48.916;8.990;2022-11-15T00:08:00;15.20;58.00
12769;DHT22;6448;48.916;8.990;2022-11-15T00:09:19;15.20;58.00
12769;DHT22;6448;48.916;8.990;2022-11-15T00:10:40;15.20;57.90
12769;DHT22;6448;48.916;8.990;2022-11-15T00:11:59;15.10;57.90
12769;DHT22;6448;48.916;8.990;2022-11-15T00:13:19;15.10;57.80
12769;DHT22;6448;48.916;8.990;2022-11-15T00:14:39;15.10;57.80
12769;DHT22;6448;48.916;8.990;2022-11-15T00:16:00;15.20;57.90
12769;DHT22;6448;48.916;8.990;2022-11-15T00:17:20;15.10;57.90
12769;DHT22;6448;48.916;8.990;2022-11-15T00:18:40;15.10;57.90
12769;DHT22;6448;48.916;8.990;2022-11-15T00:20:01;15.10;58.00
12769;DHT22;6448;48.916;8.990;2022-11-15T00:21:21;15.10;58.00
12769;DHT22;6448;48.916;8.990;2022-11-15T00:22:43;15.10;58.00
12769;DHT22;6448;48.916;8.990;2022-11-15T00:24:02;15.10;58.00
12769;DHT22;6448;48.916;8.990;2022-11-15T00:25:22;15.10;57.90
12769;DHT22;6448;48.916;8.990;2022-11-15T00:26:42;15.10;57.90
12769;DHT22;6448;48.916;8.990;2022-11-15T00:28:03;15.10;57.90
12769;DHT22;6448;48.916;8.990;2022-11-15T00:29:23;15.10;57.80
12769;DHT22;6448;48.916;8.990;2022-11-15T00:30:44;15.10;57.90
12769;DHT22;6448;48.916;8.990;2022-11-15T00:32:03;15.10;57.90
12769;DHT22;6448;48.916;8.990;2022-11-15T00:33:23;15.10;57.90
12769;DHT22;6448;48.916;8.990;2022-11-15T00:34:43;15.00;57.90
12769;DHT22;6448;48.916;8.990;2022-11-15T00:36:05;15.10;57.90
12769;DHT22;6448;48.916;8.990;2022-11-15T00:37:26;15.10;58.00
12769;DHT22;6448;48.916;8.990;2022-11-15T00:38:48;15.10;57.90
12769;DHT22;6448;48.916;8.990;2022-11-15T00:40:09;15.10;57.90
12769;DHT22;6448;48.916;8.990;2022-11-15T00:41:31;15.00;57.80
12769;DHT22;6448;48.916;8.990;2022-11-15T00:42:52;15.10;57.80
12769;DHT22;6448;48.916;8.990;2022-11-15T00:44:11;15.00;57.70
12769;DHT22;6448;48.916;8.990;2022-11-15T00:45:33;15.00;57.60
12769;DHT22;6448;48.916;8.990;2022-11-15T00:46:52;15.00;57.60
12769;DHT22;6448;48.916;8.990;2022-11-15T00:48:13;15.00;57.50
12769;DHT22;6448;48.916;8.990;2022-11-15T00:49:33;15.00;57.50
12769;DHT22;6448;48.916;8.990;2022-11-15T00:50:52;15.00;57.50
12769;DHT22;6448;48.916;8.990;2022-11-15T00:52:13;15.00;57.50
12769;DHT22;6448;48.916;8.990;2022-11-15T00:53:34;15.10;57.60
12769;DHT22;6448;48.916;8.990;2022-11-15T00:54:54;15.00;57.60
12769;DHT22;6448;48.916;8.990;2022-11-15T00:56:15;14.90;57.50
12769;DHT22;6448;48.916;8.990;2022-11-15T00:57:35;15.00;57.60
12769;DHT22;6448;48.916;8.990;2022-11-15T00:58:54;15.00;57.50
12769;DHT22;6448;48.916;8.990;2022-11-15T01:00:15;14.90;57.50
12769;DHT22;6448;48.916;8.990;2022-11-15T01:01:35;14.90;57.50
12769;DHT22;6448;48.916;8.990;2022-11-15T01:02:55;15.10;57.50
12769;DHT22;6448;48.916;8.990;2022-11-15T01:04:15;14.90;57.30
12769;DHT22;6448;48.916;8.990;2022-11-15T01:05:37;14.90;57.30
12769;DHT22;6448;48.916;8.990;2022-11-15T01:06:57;14.90;57.30
12769;DHT22;6448;48.916;8.990;2022-11-15T01:08:17;14.90;57.20
12769;DHT22;6448;48.916;8.990;2022-11-15T01:09:37;14.90;57.30
12769;DHT22;6448;48.916;8.990;2022-11-15T01:11:01;14.90;57.20
12769;DHT22;6448;48.916;8.990;2022-11-15T01:12:22;14.90;57.30
12769;DHT22;6448;48.916;8.990;2022-11-15T01:13:42;14.90;57.20
12769;DHT22;6448;48.916;8.990;2022-11-15T01:15:02;14.90;57.20
12769;DHT22;6448;48.916;8.990;2022-11-15T01:16:23;14.80;57.10
12769;DHT22;6448;48.916;8.990;2022-11-15T01:17:43;14.80;57.10
12769;DHT22;6448;48.916;8.990;2022-11-15T01:19:03;14.80;57.10
12769;DHT22;6448;48.916;8.990;2022-11-15T01:20:24;14.80;57.10
12769;DHT22;6448;48.916;8.990;2022-11-15T01:21:43;14.80;57.10
12769;DHT22;6448;48.916;8.990;2022-11-15T01:23:04;15.00;57.30
12769;DHT22;6448;48.916;8.990;2022-11-15T01:24:23;14.80;57.20
12769;DHT22;6448;48.916;8.990;2022-11-15T01:25:44;14.70;57.10
12769;DHT22;6448;48.916;8.990;2022-11-15T01:27:05;14.70;57.10
12769;DHT22;6448;48.916;8.990;2022-11-15T01:28:29;14.70;57.10
12769;DHT22;6448;48.916;8.990;2022-11-15T01:29:49;14.70;57.10
12769;DHT22;6448;48.916;8.990;2022-11-15T01:31:14;14.70;57.10
12769;DHT22;6448;48.916;8.990;2022-11-15T01:32:35;14.70;57.10
12769;DHT22;6448;48.916;8.990;2022-11-15T01:33:55;14.70;57.10
12769;DHT22;6448;48.916;8.990;2022-11-15T01:35:16;14.70;57.10
12769;DHT22;6448;48.916;8.990;2022-11-15T01:36:35;14.70;57.10
12769;DHT22;6448;48.916;8.990;2022-11-15T01:37:56;14.60;57.10
12769;DHT22;6448;48.916;8.990;2022-11-15T01:39:17;14.60;57.40
12769;DHT22;6448;48.916;8.990;2022-11-15T01:40:36;14.60;57.10
12769;DHT22;6448;48.916;8.990;2022-11-15T01:41:56;14.60;57.10
12769;DHT22;6448;48.916;8.990;2022-11-15T01:43:22;14.50;57.10
12769;DHT22;6448;48.916;8.990;2022-11-15T01:44:46;14.60;57.10
12769;DHT22;6448;48.916;8.990;2022-11-15T01:46:23;14.60;57.20
12769;DHT22;6448;48.916;8.990;2022-11-15T01:47:45;14.50;57.10
12769;DHT22;6448;48.916;8.990;2022-11-15T01:49:11;14.60;57.20
12769;DHT22;6448;48.916;8.990;2022-11-15T01:50:32;14.50;57.20
12769;DHT22;6448;48.916;8.990;2022-11-15T01:51:54;14.60;57.20
12769;DHT22;6448;48.916;8.990;2022-11-15T01:53:14;14.50;57.20
12769;DHT22;6448;48.916;8.990;2022-11-15T01:54:35;14.50;57.30
12769;DHT22;6448;48.916;8.990;2022-11-15T01:55:55;14.50;57.30
12769;DHT22;6448;48.916;8.990;2022-11-15T01:57:15;14.50;57.30
12769;DHT22;6448;48.916;8.990;2022-11-15T01:58:37;14.50;57.30
12769;DHT22;6448;48.916;8.990;2022-11-15T01:59:58;14.50;57.30
12769;DHT22;6448;48.916;8.990;2022-11-15T02:01:21;14.50;57.40
12769;DHT22;6448;48.916;8.990;2022-11-15T02:02:41;14.50;57.40
12769;DHT22;6448;48.916;8.990;2022-11-15T02:04:05;14.50;57.40
12769;DHT22;6448;48.916;8.990;2022-11-15T02:05:27;14.50;57.50
12769;DHT22;6448;48.916;8.990;2022-11-15T02:06:48;14.50;58.10
12769;DHT22;6448;48.916;8.990;2022-11-15T02:08:08;14.40;57.40
12769;DHT22;6448;48.916;8.990;2022-11-15T02:09:39;14.40;57.50
12769;DHT22;6448;48.916;8.990;2022-11-15T02:10:59;14.40;57.50
12769;DHT22;6448;48.916;8.990;2022-11-15T02:12:21;14.40;57.60
12769;DHT22;6448;48.916;8.990;2022-11-15T02:13:43;14.40;57.60
12769;DHT22;6448;48.916;8.990;2022-11-15T02:15:05;14.40;57.60
12769;DHT22;6448;48.916;8.990;2022-11-15T02:16:33;14.40;57.60
12769;DHT22;6448;48.916;8.990;2022-11-15T02:18:05;14.40;57.70
12769;DHT22;6448;48.916;8.990;2022-11-15T02:19:46;14.40;57.70
12769;DHT22;6448;48.916;8.990;2022-11-15T02:21:17;14.40;57.70
12769;DHT22;6448;48.916;8.990;2022-11-15T02:22:50;14.40;57.60
12769;DHT22;6448;48.916;8.990;2022-11-15T02:26:18;14.40;57.70
12769;DHT22;6448;48.916;8.990;2022-11-15T02:28:02;14.40;57.80
12769;DHT22;6448;48.916;8.990;2022-11-15T02:29:36;14.40;57.80
12769;DHT22;6448;48.916;8.990;2022-11-15T02:31:06;14.40;57.90
12769;DHT22;6448;48.916;8.990;2022-11-15T02:32:36;14.40;57.90
12769;DHT22;6448;48.916;8.990;2022-11-15T02:34:06;14.40;57.90
12769;DHT22;6448;48.916;8.990;2022-11-15T02:35:35;14.40;58.00
12769;DHT22;6448;48.916;8.990;2022-11-15T02:37:02;14.40;58.00
12769;DHT22;6448;48.916;8.990;2022-11-15T02:38:29;14.40;58.00
12769;DHT22;6448;48.916;8.990;2022-11-15T02:39:54;14.40;58.10
12769;DHT22;6448;48.916;8.990;2022-11-15T02:41:22;14.40;58.20
12769;DHT22;6448;48.916;8.990;2022-11-15T02:42:49;14.40;58.20
12769;DHT22;6448;48.916;8.990;2022-11-15T02:44:33;14.40;58.20
12769;DHT22;6448;48.916;8.990;2022-11-15T02:45:59;14.40;58.20
12769;DHT22;6448;48.916;8.990;2022-11-15T02:47:24;14.40;58.20
12769;DHT22;6448;48.916;8.990;2022-11-15T02:48:47;14.40;58.20
12769;DHT22;6448;48.916;8.990;2022-11-15T02:50:10;14.40;58.30
12769;DHT22;6448;48.916;8.990;2022-11-15T02:51:30;14.40;58.30
12769;DHT22;6448;48.916;8.990;2022-11-15T02:52:51;14.40;58.30
12769;DHT22;6448;48.916;8.990;2022-11-15T02:54:12;14.40;58.30
12769;DHT22;6448;48.916;8.990;2022-11-15T02:55:35;14.40;58.30
12769;DHT22;6448;48.916;8.990;2022-11-15T02:57:00;14.40;58.30
12769;DHT22;6448;48.916;8.990;2022-11-15T03:00:19;14.40;58.30
12769;DHT22;6448;48.916;8.990;2022-11-15T03:01:50;14.40;58.40
12769;DHT22;6448;48.916;8.990;2022-11-15T03:03:38;14.40;58.40
12769;DHT22;6448;48.916;8.990;2022-11-15T03:05:05;14.40;58.40
12769;DHT22;6448;48.916;8.990;2022-11-15T03:06:35;14.40;58.30
12769;DHT22;6448;48.916;8.990;2022-11-15T03:08:00;14.70;58.50
12769;DHT22;6448;48.916;8.990;2022-11-15T03:09:29;14.50;58.50
12769;DHT22;6448;48.916;8.990;2022-11-15T03:10:59;14.50;58.50
12769;DHT22;6448;48.916;8.990;2022-11-15T03:12:25;14.50;59.00
12769;DHT22;6448;48.916;8.990;2022-11-15T03:13:51;14.50;58.40
12769;DHT22;6448;48.916;8.990;2022-11-15T03:15:19;14.50;58.40
12769;DHT22;6448;48.916;8.990;2022-11-15T03:16:45;14.50;58.40
12769;DHT22;6448;48.916;8.990;2022-11-15T03:18:11;14.50;58.40
12769;DHT22;6448;48.916;8.990;2022-11-15T03:19:38;14.50;58.40
12769;DHT22;6448;48.916;8.990;2022-11-15T03:21:02;14.40;58.30
12769;DHT22;6448;48.916;8.990;2022-11-15T03:22:27;14.40;58.30
12769;DHT22;6448;48.916;8.990;2022-11-15T03:23:47;14.50;58.40
12769;DHT22;6448;48.916;8.990;2022-11-15T03:25:11;14.40;58.40
12769;DHT22;6448;48.916;8.990;2022-11-15T03:26:36;14.40;58.40
12769;DHT22;6448;48.916;8.990;2022-11-15T03:27:59;14.50;58.50
12769;DHT22;6448;48.916;8.990;2022-11-15T03:29:24;14.50;58.50
12769;DHT22;6448;48.916;8.990;2022-11-15T03:30:48;14.50;58.50
12769;DHT22;6448;48.916;8.990;2022-11-15T03:32:14;14.50;58.50
12769;DHT22;6448;48.916;8.990;2022-11-15T03:33:35;14.50;58.50
12769;DHT22;6448;48.916;8.990;2022-11-15T03:34:58;14.40;58.40
12769;DHT22;6448;48.916;8.990;2022-11-15T03:36:21;14.50;58.50
12769;DHT22;6448;48.916;8.990;2022-11-15T03:37:47;14.40;58.40
12769;DHT22;6448;48.916;8.990;2022-11-15T03:39:09;14.50;58.50
12769;DHT22;6448;48.916;8.990;2022-11-15T03:40:34;14.50;58.50
12769;DHT22;6448;48.916;8.990;2022-11-15T03:42:04;14.50;58.50
12769;DHT22;6448;48.916;8.990;2022-11-15T03:43:33;14.40;58.50
12769;DHT22;6448;48.916;8.990;2022-11-15T03:44:58;14.50;58.50
12769;DHT22;6448;48.916;8.990;2022-11-15T03:46:24;14.40;58.40
12769;DHT22;6448;48.916;8.990;2022-11-15T03:47:48;14.50;58.50
12769;DHT22;6448;48.916;8.990;2022-11-15T03:49:12;14.50;58.50
12769;DHT22;6448;48.916;8.990;2022-11-15T03:50:34;14.40;58.50
12769;DHT22;6448;48.916;8.990;2022-11-15T03:51:56;14.40;58.40
12769;DHT22;6448;48.916;8.990;2022-11-15T03:53:16;14.40;58.50
12769;DHT22;6448;48.916;8.990;2022-11-15T03:54:44;14.40;58.50
12769;DHT22;6448;48.916;8.990;2022-11-15T03:56:06;14.40;58.50
12769;DHT22;6448;48.916;8.990;2022-11-15T03:57:27;14.50;58.60
12769;DHT22;6448;48.916;8.990;2022-11-15T03:58:47;14.40;58.60
12769;DHT22;6448;48.916;8.990;2022-11-15T04:00:08;14.40;58.60
12769;DHT22;6448;48.916;8.990;2022-11-15T04:01:30;14.40;58.60
12769;DHT22;6448;48.916;8.990;2022-11-15T04:02:50;14.40;58.60
12769;DHT22;6448;48.916;8.990;2022-11-15T04:04:10;14.40;58.70
12769;DHT22;6448;48.916;8.990;2022-11-15T04:05:31;14.40;58.70
12769;DHT22;6448;48.916;8.990;2022-11-15T04:06:53;14.40;58.70
12769;DHT22;6448;48.916;8.990;2022-11-15T04:08:13;14.40;58.70
12769;DHT22;6448;48.916;8.990;2022-11-15T04:09:33;14.40;58.70
12769;DHT22;6448;48.916;8.990;2022-11-15T04:11:13;14.40;58.70
12769;DHT22;6448;48.916;8.990;2022-11-15T04:12:35;14.40;58.80
12769;DHT22;6448;48.916;8.990;2022-11-15T04:13:54;14.40;58.80
12769;DHT22;6448;48.916;8.990;2022-11-15T04:15:17;14.40;58.90
12769;DHT22;6448;48.916;8.990;2022-11-15T04:16:37;14.40;59.50
12769;DHT22;6448;48.916;8.990;2022-11-15T04:17:58;14.40;58.90
12769;DHT22;6448;48.916;8.990;2022-11-15T04:19:17;14.40;58.90
12769;DHT22;6448;48.916;8.990;2022-11-15T04:20:56;14.40;59.00
12769;DHT22;6448;48.916;8.990;2022-11-15T04:22:35;14.60;59.10
12769;DHT22;6448;48.916;8.990;2022-11-15T04:24:13;14.40;59.00
12769;DHT22;6448;48.916;8.990;2022-11-15T04:25:34;14.40;59.00
12769;DHT22;6448;48.916;8.990;2022-11-15T04:26:53;14.40;59.00
12769;DHT22;6448;48.916;8.990;2022-11-15T04:28:13;14.40;59.00
12769;DHT22;6448;48.916;8.990;2022-11-15T04:29:34;14.40;59.10
12769;DHT22;6448;48.916;8.990;2022-11-15T04:30:54;14.40;59.10
12769;DHT22;6448;48.916;8.990;2022-11-15T04:32:14;14.40;59.00
12769;DHT22;6448;48.916;8.990;2022-11-15T04:33:33;14.40;59.00
12769;DHT22;6448;48.916;8.990;2022-11-15T04:34:54;14.40;59.00
12769;DHT22;6448;48.916;8.990;2022-11-15T04:36:14;14.40;59.00
12769;DHT22;6448;48.916;8.990;2022-11-15T04:37:53;14.40;59.00
12769;DHT22;6448;48.916;8.990;2022-11-15T04:39:13;14.40;59.10
12769;DHT22;6448;48.916;8.990;2022-11-15T04:40:33;14.40;59.10
12769;DHT22;6448;48.916;8.990;2022-11-15T04:41:54;14.40;59.10
12769;DHT22;6448;48.916;8.990;2022-11-15T04:43:14;14.40;59.00
12769;DHT22;6448;48.916;8.990;2022-11-15T04:44:34;14.40;59.10
12769;DHT22;6448;48.916;8.990;2022-11-15T04:45:54;14.40;59.00
12769;DHT22;6448;48.916;8.990;2022-11-15T04:47:15;14.40;59.00
12769;DHT22;6448;48.916;8.990;2022-11-15T04:48:34;14.50;59.10
12769;DHT22;6448;48.916;8.990;2022-11-15T04:49:54;14.40;59.00
12769;DHT22;6448;48.916;8.990;2022-11-15T04:51:15;14.40;59.00
12769;DHT22;6448;48.916;8.990;2022-11-15T04:52:34;14.40;59.00
12769;DHT22;6448;48.916;8.990;2022-11-15T04:53:56;14.50;59.10
12769;DHT22;6448;48.916;8.990;2022-11-15T04:55:16;14.40;59.00
12769;DHT22;6448;48.916;8.990;2022-11-15T04:56:36;14.40;59.10
12769;DHT22;6448;48.916;8.990;2022-11-15T04:58:00;14.50;59.10
12769;DHT22;6448;48.916;8.990;2022-11-15T04:59:20;14.40;59.00
12769;DHT22;6448;48.916;8.990;2022-11-15T05:00:40;14.50;59.00
12769;DHT22;6448;48.916;8.990;2022-11-15T05:02:01;14.50;59.00
12769;DHT22;6448;48.916;8.990;2022-11-15T05:03:21;14.50;59.10
12769;DHT22;6448;48.916;8.990;2022-11-15T05:04:59;14.50;59.10
12769;DHT22;6448;48.916;8.990;2022-11-15T05:06:18;14.50;59.10
12769;DHT22;6448;48.916;8.990;2022-11-15T05:07:39;14.50;59.00
12769;DHT22;6448;48.916;8.990;2022-11-15T05:09:00;14.50;59.00
12769;DHT22;6448;48.916;8.990;2022-11-15T05:10:20;14.50;59.00
12769;DHT22;6448;48.916;8.990;2022-11-15T05:11:40;14.50;59.00
12769;DHT22;6448;48.916;8.990;2022-11-15T05:13:00;14.50;59.10
12769;DHT22;6448;48.916;8.990;2022-11-15T05:14:21;14.50;59.10
12769;DHT22;6448;48.916;8.990;2022-11-15T05:15:40;14.50;59.10
12769;DHT22;6448;48.916;8.990;2022-11-15T05:17:01;14.50;59.10
12769;DHT22;6448;48.916;8.990;2022-11-15T05:18:21;14.50;59.20
12769;DHT22;6448;48.916;8.990;2022-11-15T05:19:41;14.50;59.20
12769;DHT22;6448;48.916;8.990;2022-11-15T05:21:03;14.40;59.10
12769;DHT22;6448;48.916;8.990;2022-11-15T05:22:23;14.40;59.80
12769;DHT22;6448;48.916;8.990;2022-11-15T05:23:43;14.40;59.10
12769;DHT22;6448;48.916;8.990;2022-11-15T05:25:05;14.40;59.10
12769;DHT22;6448;48.916;8.990;2022-11-15T05:26:25;14.50;59.20
12769;DHT22;6448;48.916;8.990;2022-11-15T05:27:46;14.40;59.20
12769;DHT22;6448;48.916;8.990;2022-11-15T05:29:05;14.70;59.40
12769;DHT22;6448;48.916;8.990;2022-11-15T05:30:26;14.50;59.30
12769;DHT22;6448;48.916;8.990;2022-11-15T05:31:45;14.40;59.30
12769;DHT22;6448;48.916;8.990;2022-11-15T05:33:06;14.40;59.20
12769;DHT22;6448;48.916;8.990;2022-11-15T05:34:25;14.40;59.20
12769;DHT22;6448;48.916;8.990;2022-11-15T05:35:50;14.40;59.20
12769;DHT22;6448;48.916;8.990;2022-11-15T05:37:13;14.40;59.20
12769;DHT22;6448;48.916;8.990;2022-11-15T05:38:34;14.40;59.20
12769;DHT22;6448;48.916;8.990;2022-11-15T05:39:53;14.40;59.30
12769;DHT22;6448;48.916;8.990;2022-11-15T05:41:15;14.40;59.30
12769;DHT22;6448;48.916;8.990;2022-11-15T05:42:36;14.40;59.30
12769;DHT22;6448;48.916;8.990;2022-11-15T05:43:58;14.50;59.30
12769;DHT22;6448;48.916;8.990;2022-11-15T05:45:19;14.40;59.30
12769;DHT22;6448;48.916;8.990;2022-11-15T05:46:40;14.50;59.30
12769;DHT22;6448;48.916;8.990;2022-11-15T05:48:06;14.40;59.30
12769;DHT22;6448;48.916;8.990;2022-11-15T05:49:30;14.50;59.30
12769;DHT22;6448;48.916;8.990;2022-11-15T05:50:51;14.50;59.40
12769;DHT22;6448;48.916;8.990;2022-11-15T05:52:14;14.50;59.30
12769;DHT22;6448;48.916;8.990;2022-11-15T05:53:37;14.40;59.30
12769;DHT22;6448;48.916;8.990;2022-11-15T05:54:58;14.40;59.30
12769;DHT22;6448;48.916;8.990;2022-11-15T05:56:20;14.50;59.40
12769;DHT22;6448;48.916;8.990;2022-11-15T05:57:41;14.40;59.30
12769;DHT22;6448;48.916;8.990;2022-11-15T05:59:02;14.50;59.30
12769;DHT22;6448;48.916;8.990;2022-11-15T06:00:23;14.40;59.40
12769;DHT22;6448;48.916;8.990;2022-11-15T06:01:42;14.40;59.30
12769;DHT22;6448;48.916;8.990;2022-11-15T06:03:03;14.50;59.40
12769;DHT22;6448;48.916;8.990;2022-11-15T06:04:22;14.50;59.30
12769;DHT22;6448;48.916;8.990;2022-11-15T06:05:42;14.50;59.30
12769;DHT22;6448;48.916;8.990;2022-11-15T06:07:03;14.40;59.20
12769;DHT22;6448;48.916;8.990;2022-11-15T06:08:23;14.40;59.30
12769;DHT22;6448;48.916;8.990;2022-11-15T06:09:44;14.40;59.90
12769;DHT22;6448;48.916;8.990;2022-11-15T06:11:05;14.40;59.40
12769;DHT22;6448;48.916;8.990;2022-11-15T06:12:26;14.40;59.30
12769;DHT22;6448;48.916;8.990;2022-11-15T06:13:47;14.40;59.30
12769;DHT22;6448;48.916;8.990;2022-11-15T06:15:08;14.40;59.20
12769;DHT22;6448;48.916;8.990;2022-11-15T06:16:27;14.40;59.30
12769;DHT22;6448;48.916;8.990;2022-11-15T06:17:48;14.40;59.30
12769;DHT22;6448;48.916;8.990;2022-11-15T06:19:07;14.40;59.30
12769;DHT22;6448;48.916;8.990;2022-11-15T06:20:29;14.40;59.40
12769;DHT22;6448;48.916;8.990;2022-11-15T06:21:48;14.40;59.40
12769;DHT22;6448;48.916;8.990;2022-11-15T06:23:09;14.40;59.40
12769;DHT22;6448;48.916;8.990;2022-11-15T06:24:28;14.40;59.40
12769;DHT22;6448;48.916;8.990;2022-11-15T06:25:49;14.40;59.40
12769;DHT22;6448;48.916;8.990;2022-11-15T06:27:08;14.40;59.50
12769;DHT22;6448;48.916;8.990;2022-11-15T06:28:31;14.40;59.40
12769;DHT22;6448;48.916;8.990;2022-11-15T06:29:51;14.40;59.50
12769;DHT22;6448;48.916;8.990;2022-11-15T06:31:12;14.40;59.50
12769;DHT22;6448;48.916;8.990;2022-11-15T06:32:32;14.40;59.50
12769;DHT22;6448;48.916;8.990;2022-11-15T06:33:51;14.40;59.60
12769;DHT22;6448;48.916;8.990;2022-11-15T06:35:12;14.40;59.60
12769;DHT22;6448;48.916;8.990;2022-11-15T06:36:34;14.40;59.60
12769;DHT22;6448;48.916;8.990;2022-11-15T06:37:55;14.40;59.60
12769;DHT22;6448;48.916;8.990;2022-11-15T06:39:14;14.40;59.60
12769;DHT22;6448;48.916;8.990;2022-11-15T06:40:35;14.40;59.60
12769;DHT22;6448;48.916;8.990;2022-11-15T06:41:55;14.40;59.60
12769;DHT22;6448;48.916;8.990;2022-11-15T06:43:14;14.40;59.60
12769;DHT22;6448;48.916;8.990;2022-11-15T06:44:36;14.40;59.50
12769;DHT22;6448;48.916;8.990;2022-11-15T06:45:57;14.50;59.60
12769;DHT22;6448;48.916;8.990;2022-11-15T06:47:18;14.60;59.60
12769;DHT22;6448;48.916;8.990;2022-11-15T06:48:38;14.50;59.60
12769;DHT22;6448;48.916;8.990;2022-11-15T06:49:59;14.40;59.40
12769;DHT22;6448;48.916;8.990;2022-11-15T06:51:19;14.40;59.40
12769;DHT22;6448;48.916;8.990;2022-11-15T06:52:40;14.40;59.40
12769;DHT22;6448;48.916;8.990;2022-11-15T06:53:59;14.40;59.50
12769;DHT22;6448;48.916;8.990;2022-11-15T06:55:20;14.40;59.40
12769;DHT22;6448;48.916;8.990;2022-11-15T06:56:40;14.40;59.40
12769;DHT22;6448;48.916;8.990;2022-11-15T06:58:00;14.40;59.40
12769;DHT22;6448;48.916;8.990;2022-11-15T06:59:20;14.40;59.40
12769;DHT22;6448;48.916;8.990;2022-11-15T07:00:42;14.40;59.40
12769;DHT22;6448;48.916;8.990;2022-11-15T07:02:01;14.40;59.50
12769;DHT22;6448;48.916;8.990;2022-11-15T07:03:22;14.40;59.50
12769;DHT22;6448;48.916;8.990;2022-11-15T07:04:42;14.40;59.50
12769;DHT22;6448;48.916;8.990;2022-11-15T07:06:02;14.40;59.50
12769;DHT22;6448;48.916;8.990;2022-11-15T07:07:22;14.40;59.50
12769;DHT22;6448;48.916;8.990;2022-11-15T07:08:43;14.40;59.60
12769;DHT22;6448;48.916;8.990;2022-11-15T07:10:06;14.40;59.60
12769;DHT22;6448;48.916;8.990;2022-11-15T07:11:27;14.40;59.60
12769;DHT22;6448;48.916;8.990;2022-11-15T07:12:48;14.40;59.60
12769;DHT22;6448;48.916;8.990;2022-11-15T07:14:08;14.40;59.60
12769;DHT22;6448;48.916;8.990;2022-11-15T07:15:29;14.40;59.70
12769;DHT22;6448;48.916;8.990;2022-11-15T07:16:50;14.40;59.70
12769;DHT22;6448;48.916;8.990;2022-11-15T07:18:10;14.40;59.70
12769;DHT22;6448;48.916;8.990;2022-11-15T07:19:31;14.40;59.80
12769;DHT22;6448;48.916;8.990;2022-11-15T07:20:51;14.40;59.70
12769;DHT22;6448;48.916;8.990;2022-11-15T07:22:12;14.50;59.80
12769;DHT22;6448;48.916;8.990;2022-11-15T07:23:33;14.50;59.80
12769;DHT22;6448;48.916;8.990;2022-11-15T07:24:53;14.50;59.80
12769;DHT22;6448;48.916;8.990;2022-11-15T07:26:14;14.40;59.80
12769;DHT22;6448;48.916;8.990;2022-11-15T07:27:34;14.50;59.80
12769;DHT22;6448;48.916;8.990;2022-11-15T07:28:55;14.40;59.80
12769;DHT22;6448;48.916;8.990;2022-11-15T07:30:16;14.50;59.80
12769;DHT22;6448;48.916;8.990;2022-11-15T07:31:35;14.50;59.80
12769;DHT22;6448;48.916;8.990;2022-11-15T07:32:58;14.50;59.80
12769;DHT22;6448;48.916;8.990;2022-11-15T07:34:18;14.50;59.80
12769;DHT22;6448;48.916;8.990;2022-11-15T07:35:39;14.50;59.90
12769;DHT22;6448;48.916;8.990;2022-11-15T07:36:58;14.50;59.90
12769;DHT22;6448;48.916;8.990;2022-11-15T07:38:19;14.50;59.90
12769;DHT22;6448;48.916;8.990;2022-11-15T07:39:39;14.50;59.90
12769;DHT22;6448;48.916;8.990;2022-11-15T07:41:02;14.50;59.90
12769;DHT22;6448;48.916;8.990;2022-11-15T07:42:23;14.50;59.90
12769;DHT22;6448;48.916;8.990;2022-11-15T07:44:01;14.50;60.00
12769;DHT22;6448;48.916;8.990;2022-11-15T07:45:22;14.50;60.10
12769;DHT22;6448;48.916;8.990;2022-11-15T07:46:44;14.60;60.10
12769;DHT22;6448;48.916;8.990;2022-11-15T07:48:07;14.60;60.10
12769;DHT22;6448;48.916;8.990;2022-11-15T07:49:27;14.50;60.10
12769;DHT22;6448;48.916;8.990;2022-11-15T07:50:47;14.60;60.20
12769;DHT22;6448;48.916;8.990;2022-11-15T07:52:08;14.60;60.20
12769;DHT22;6448;48.916;8.990;2022-11-15T07:53:28;14.60;60.20
12769;DHT22;6448;48.916;8.990;2022-11-15T07:54:48;14.60;60.20
12769;DHT22;6448;48.916;8.990;2022-11-15T07:56:09;14.50;60.10
12769;DHT22;6448;48.916;8.990;2022-11-15T07:57:30;14.70;60.20
12769;DHT22;6448;48.916;8.990;2022-11-15T07:58:50;14.60;60.10
12769;DHT22;6448;48.916;8.990;2022-11-15T08:00:12;14.60;60.10
12769;DHT22;6448;48.916;8.990;2022-11-15T08:01:32;14.60;60.10
12769;DHT22;6448;48.916;8.990;2022-11-15T08:02:52;14.70;60.10
12769;DHT22;6448;48.916;8.990;2022-11-15T08:04:15;14.70;60.20
12769;DHT22;6448;48.916;8.990;2022-11-15T08:05:36;14.60;60.20
12769;DHT22;6448;48.916;8.990;2022-11-15T08:06:56;14.60;60.20
12769;DHT22;6448;48.916;8.990;2022-11-15T08:08:18;14.60;60.30
12769;DHT22;6448;48.916;8.990;2022-11-15T08:09:38;14.70;60.40
12769;DHT22;6448;48.916;8.990;2022-11-15T08:10:58;14.70;60.50
12769;DHT22;6448;48.916;8.990;2022-11-15T08:12:19;14.70;60.60
12769;DHT22;6448;48.916;8.990;2022-11-15T08:13:39;14.70;60.60
12769;DHT22;6448;48.916;8.990;2022-11-15T08:15:00;14.70;60.70
12769;DHT22;6448;48.916;8.990;2022-11-15T08:16:20;14.60;60.60
12769;DHT22;6448;48.916;8.990;2022-11-15T08:17:40;14.70;60.70
12769;DHT22;6448;48.916;8.990;2022-11-15T08:19:01;14.70;60.60
12769;DHT22;6448;48.916;8.990;2022-11-15T08:20:23;14.70;60.60
12769;DHT22;6448;48.916;8.990;2022-11-15T08:21:44;14.80;60.60
12769;DHT22;6448;48.916;8.990;2022-11-15T08:23:05;14.80;60.60
12769;DHT22;6448;48.916;8.990;2022-11-15T08:24:25;14.80;60.60
12769;DHT22;6448;48.916;8.990;2022-11-15T08:25:45;14.80;60.60
12769;DHT22;6448;48.916;8.990;2022-11-15T08:27:05;14.80;60.50
12769;DHT22;6448;48.916;8.990;2022-11-15T08:28:33;14.80;60.60
12769;DHT22;6448;48.916;8.990;2022-11-15T08:29:53;14.80;60.60
12769;DHT22;6448;48.916;8.990;2022-11-15T08:31:17;14.80;60.80
12769;DHT22;6448;48.916;8.990;2022-11-15T08:32:38;14.90;61.20
12769;DHT22;6448;48.916;8.990;2022-11-15T08:33:58;14.90;61.20
12769;DHT22;6448;48.916;8.990;2022-11-15T08:35:20;14.90;61.10
12769;DHT22;6448;48.916;8.990;2022-11-15T08:36:41;14.90;61.20
12769;DHT22;6448;48.916;8.990;2022-11-15T08:38:02;14.90;61.30
12769;DHT22;6448;48.916;8.990;2022-11-15T08:39:23;15.00;61.50
12769;DHT22;6448;48.916;8.990;2022-11-15T08:40:43;15.00;61.50
12769;DHT22;6448;48.916;8.990;2022-11-15T08:42:04;14.90;61.40
12769;DHT22;6448;48.916;8.990;2022-11-15T08:43:24;15.00;61.60
12769;DHT22;6448;48.916;8.990;2022-11-15T08:44:45;15.00;61.50
12769;DHT22;6448;48.916;8.990;2022-11-15T08:46:05;15.00;61.50
12769;DHT22;6448;48.916;8.990;2022-11-15T08:47:25;15.10;61.60
12769;DHT22;6448;48.916;8.990;2022-11-15T08:48:46;15.00;61.40
12769;DHT22;6448;48.916;8.990;2022-11-15T08:50:07;15.00;61.40
12769;DHT22;6448;48.916;8.990;2022-11-15T08:51:27;15.00;61.40